sensor_id;sensor_type;location;lat;lon;timestamp;pressure;altitude;pressure_sealevel;temperature;humidity
5484;BME280;2764;48.794;8.326;2022-12-29T00:00:08;99365.03;;;14.81;54.38
5484;BME280;2764;48.794;8.326;2022-12-29T00:01:11;99350.09;;;14.82;53.86
5484;BME280;2764;48.794;8.326;2022-12-29T00:02:14;99378.22;;;14.81;54.11
5484;BME280;2764;48.794;8.326;2022-12-29T00:03:16;99366.81;;;14.81;54.15
5484;BME280;2764;48.794;8.326;2022-12-29T00:04:18;99377.34;;;14.81;54.36
5484;BME280;2764;48.794;8.326;2022-12-29T00:05:20;99362.72;;;14.76;54.72
5484;BME280;2764;48.794;8.326;2022-12-29T00:06:22;99364.72;;;14.73;54.63
5484;BME280;2764;48.794;8.326;2022-12-29T00:07:24;99363.56;;;14.77;54.23
5484;BME280;2764;48.794;8.326;2022-12-29T00:08:26;99363.25;;;14.82;54.34
5484;BME280;2764;48.794;8.326;2022-12-29T00:09:43;99357.88;;;14.70;54.66
5484;BME280;2764;48.794;8.326;2022-12-29T00:10:44;99358.50;;;14.74;54.62
5484;BME280;2764;48.794;8.326;2022-12-29T00:11:46;99367.88;;;14.78;54.01
5484;BME280;2764;48.794;8.326;2022-12-29T00:12:48;99364.84;;;14.84;54.38
5484;BME280;2764;48.794;8.326;2022-12-29T00:14:09;99367.78;;;14.92;53.78
5484;BME280;2764;48.794;8.326;2022-12-29T00:15:29;99343.38;;;15.03;53.32
5484;BME280;2764;48.794;8.326;2022-12-29T00:16:42;99360.13;;;15.02;53.34
5484;BME280;2764;48.794;8.326;2022-12-29T00:17:44;99365.63;;;14.99;53.50
5484;BME280;2764;48.794;8.326;2022-12-29T00:18:46;99357.91;;;14.96;53.54
5484;BME280;2764;48.794;8.326;2022-12-29T00:19:48;99382.84;;;14.90;53.66
5484;BME280;2764;48.794;8.326;2022-12-29T00:21:21;99363.16;;;14.83;54.53
5484;BME280;2764;48.794;8.326;2022-12-29T00:22:42;99361.06;;;14.75;54.09
5484;BME280;2764;48.794;8.326;2022-12-29T00:24:02;99350.41;;;14.77;53.91
5484;BME280;2764;48.794;8.326;2022-12-29T00:25:23;99363.88;;;14.85;53.45
5484;BME280;2764;48.794;8.326;2022-12-29T00:26:43;99364.13;;;14.82;53.78
5484;BME280;2764;48.794;8.326;2022-12-29T00:28:08;99364.72;;;14.73;53.94
5484;BME280;2764;48.794;8.326;2022-12-29T00:29:49;99381.88;;;14.66;54.98
5484;BME280;2764;48.794;8.326;2022-12-29T00:31:11;99361.34;;;14.71;54.15
5484;BME280;2764;48.794;8.326;2022-12-29T00:32:33;99369.69;;;14.77;54.08
5484;BME280;2764;48.794;8.326;2022-12-29T00:33:53;99362.72;;;14.76;54.29
5484;BME280;2764;48.794;8.326;2022-12-29T00:35:28;99373.44;;;14.73;54.44
5484;BME280;2764;48.794;8.326;2022-12-29T00:36:32;99380.16;;;14.65;54.99
5484;BME280;2764;48.794;8.326;2022-12-29T00:37:40;99377.22;;;14.57;55.85
5484;BME280;2764;48.794;8.326;2022-12-29T00:39:07;99374.22;;;14.49;55.72
5484;BME280;2764;48.794;8.326;2022-12-29T00:40:28;99403.28;;;14.47;56.67
5484;BME280;2764;48.794;8.326;2022-12-29T00:41:48;99367.47;;;14.45;56.55
5484;BME280;2764;48.794;8.326;2022-12-29T00:43:09;99378.31;;;14.40;56.16
5484;BME280;2764;48.794;8.326;2022-12-29T00:44:29;99373.34;;;14.36;56.22
5484;BME280;2764;48.794;8.326;2022-12-29T00:45:31;99372.19;;;14.26;57.82
5484;BME280;2764;48.794;8.326;2022-12-29T00:46:33;99368.50;;;14.16;57.99
5484;BME280;2764;48.794;8.326;2022-12-29T00:47:36;99362.97;;;14.06;59.57
5484;BME280;2764;48.794;8.326;2022-12-29T00:48:38;99380.44;;;13.93;59.75
5484;BME280;2764;48.794;8.326;2022-12-29T00:49:58;99385.06;;;13.89;58.91
5484;BME280;2764;48.794;8.326;2022-12-29T00:51:00;99382.25;;;13.92;58.38
5484;BME280;2764;48.794;8.326;2022-12-29T00:52:07;99381.00;;;13.98;58.04
5484;BME280;2764;48.794;8.326;2022-12-29T00:53:09;99397.63;;;13.98;58.32
5484;BME280;2764;48.794;8.326;2022-12-29T00:54:11;99360.97;;;13.69;58.45
5484;BME280;2764;48.794;8.326;2022-12-29T00:55:14;99392.66;;;13.94;57.92
5484;BME280;2764;48.794;8.326;2022-12-29T00:56:16;99383.63;;;13.98;57.56
5484;BME280;2764;48.794;8.326;2022-12-29T00:57:18;99384.31;;;14.01;57.92
5484;BME280;2764;48.794;8.326;2022-12-29T00:58:20;99384.09;;;14.04;57.77
5484;BME280;2764;48.794;8.326;2022-12-29T00:59:22;99374.25;;;13.94;58.74
5484;BME280;2764;48.794;8.326;2022-12-29T01:00:25;99397.19;;;13.92;58.77
5484;BME280;2764;48.794;8.326;2022-12-29T01:01:27;99375.47;;;13.88;58.86
5484;BME280;2764;48.794;8.326;2022-12-29T01:02:30;99354.41;;;13.62;58.72
5484;BME280;2764;48.794;8.326;2022-12-29T01:03:32;99397.00;;;13.81;59.07
5484;BME280;2764;48.794;8.326;2022-12-29T01:04:35;99399.34;;;13.85;58.38
5484;BME280;2764;48.794;8.326;2022-12-29T01:05:37;99383.75;;;13.82;59.24
5484;BME280;2764;48.794;8.326;2022-12-29T01:06:40;99398.31;;;13.88;58.38
5484;BME280;2764;48.794;8.326;2022-12-29T01:07:42;99395.97;;;13.83;58.92
5484;BME280;2764;48.794;8.326;2022-12-29T01:08:44;99401.53;;;13.79;59.64
5484;BME280;2764;48.794;8.326;2022-12-29T01:09:46;99394.66;;;13.76;58.98
5484;BME280;2764;48.794;8.326;2022-12-29T01:11:08;99405.19;;;13.76;59.25
5484;BME280;2764;48.794;8.326;2022-12-29T01:12:11;99405.19;;;13.76;59.88
5484;BME280;2764;48.794;8.326;2022-12-29T01:13:13;99404.31;;;13.76;59.05
5484;BME280;2764;48.794;8.326;2022-12-29T01:14:15;99413.25;;;13.73;59.54
5484;BME280;2764;48.794;8.326;2022-12-29T01:15:18;99410.63;;;13.73;59.39
5484;BME280;2764;48.794;8.326;2022-12-29T01:16:20;99405.94;;;13.78;59.25
5484;BME280;2764;48.794;8.326;2022-12-29T01:17:22;99415.69;;;13.76;59.30
5484;BME280;2764;48.794;8.326;2022-12-29T01:18:24;99410.44;;;13.76;59.26
5484;BME280;2764;48.794;8.326;2022-12-29T01:19:26;99412.31;;;13.74;59.42
5484;BME280;2764;48.794;8.326;2022-12-29T01:20:28;99444.69;;;13.75;59.46
5484;BME280;2764;48.794;8.326;2022-12-29T01:21:30;99389.00;;;13.82;58.60
5484;BME280;2764;48.794;8.326;2022-12-29T01:22:32;99403.84;;;13.83;59.15
5484;BME280;2764;48.794;8.326;2022-12-29T01:23:34;99374.00;;;13.84;59.27
5484;BME280;2764;48.794;8.326;2022-12-29T01:24:36;99400.38;;;13.83;59.49
5484;BME280;2764;48.794;8.326;2022-12-29T01:25:37;99384.34;;;13.73;59.78
5484;BME280;2764;48.794;8.326;2022-12-29T01:26:39;99408.16;;;13.70;59.57
5484;BME280;2764;48.794;8.326;2022-12-29T01:27:41;99375.69;;;13.71;59.44
5484;BME280;2764;48.794;8.326;2022-12-29T01:28:43;99388.56;;;13.76;59.15
5484;BME280;2764;48.794;8.326;2022-12-29T01:29:45;99396.63;;;13.73;59.60
5484;BME280;2764;48.794;8.326;2022-12-29T01:30:48;99372.31;;;13.69;59.95
5484;BME280;2764;48.794;8.326;2022-12-29T01:31:50;99362.19;;;13.63;59.89
5484;BME280;2764;48.794;8.326;2022-12-29T01:32:52;99383.41;;;13.74;59.15
5484;BME280;2764;48.794;8.326;2022-12-29T01:33:54;99383.41;;;13.74;59.90
5484;BME280;2764;48.794;8.326;2022-12-29T01:34:56;99377.38;;;13.72;59.45
5484;BME280;2764;48.794;8.326;2022-12-29T01:36:05;99336.69;;;13.37;60.05
5484;BME280;2764;48.794;8.326;2022-12-29T01:37:08;99384.22;;;13.61;60.33
5484;BME280;2764;48.794;8.326;2022-12-29T01:38:10;99386.41;;;13.54;60.50
5484;BME280;2764;48.794;8.326;2022-12-29T01:39:11;99385.00;;;13.49;60.98
5484;BME280;2764;48.794;8.326;2022-12-29T01:40:14;99356.94;;;13.21;61.32
5484;BME280;2764;48.794;8.326;2022-12-29T01:41:19;99411.34;;;13.47;60.31
5484;BME280;2764;48.794;8.326;2022-12-29T01:42:24;99387.59;;;13.77;59.24
5484;BME280;2764;48.794;8.326;2022-12-29T01:43:53;99381.88;;;13.84;59.16
5484;BME280;2764;48.794;8.326;2022-12-29T01:44:57;99378.97;;;13.75;59.28
5484;BME280;2764;48.794;8.326;2022-12-29T01:46:01;99384.34;;;13.73;60.36
5484;BME280;2764;48.794;8.326;2022-12-29T01:47:03;99387.88;;;13.72;59.46
5484;BME280;2764;48.794;8.326;2022-12-29T01:48:05;99383.94;;;13.79;59.07
5484;BME280;2764;48.794;8.326;2022-12-29T01:49:20;99395.13;;;13.83;59.05
5484;BME280;2764;48.794;8.326;2022-12-29T01:50:37;99398.22;;;13.89;59.08
5484;BME280;2764;48.794;8.326;2022-12-29T01:51:50;99389.47;;;13.89;59.28
5484;BME280;2764;48.794;8.326;2022-12-29T01:52:57;99406.09;;;13.89;58.77
5484;BME280;2764;48.794;8.326;2022-12-29T01:54:02;99388.16;;;13.82;59.78
5484;BME280;2764;48.794;8.326;2022-12-29T01:55:07;99390.03;;;13.80;59.11
5484;BME280;2764;48.794;8.326;2022-12-29T01:56:12;99376.34;;;13.75;59.63
5484;BME280;2764;48.794;8.326;2022-12-29T01:57:20;99367.53;;;13.62;59.70
5484;BME280;2764;48.794;8.326;2022-12-29T01:58:28;99369.88;;;13.66;59.58
5484;BME280;2764;48.794;8.326;2022-12-29T01:59:35;99374.00;;;13.70;59.48
5484;BME280;2764;48.794;8.326;2022-12-29T02:00:39;99383.41;;;13.74;59.45
5484;BME280;2764;48.794;8.326;2022-12-29T02:01:41;99381.13;;;13.82;58.78
5484;BME280;2764;48.794;8.326;2022-12-29T02:02:50;99371.19;;;13.87;58.57
5484;BME280;2764;48.794;8.326;2022-12-29T02:03:53;99371.19;;;13.87;59.17
5484;BME280;2764;48.794;8.326;2022-12-29T02:04:58;99383.38;;;13.88;58.85
5484;BME280;2764;48.794;8.326;2022-12-29T02:06:14;99369.41;;;13.88;58.57
5484;BME280;2764;48.794;8.326;2022-12-29T02:07:21;99338.25;;;13.68;58.68
5484;BME280;2764;48.794;8.326;2022-12-29T02:08:27;99374.56;;;13.89;58.76
5484;BME280;2764;48.794;8.326;2022-12-29T02:09:30;99378.41;;;13.84;58.99
5484;BME280;2764;48.794;8.326;2022-12-29T02:10:34;99370.91;;;13.78;59.63
5484;BME280;2764;48.794;8.326;2022-12-29T02:11:37;99366.03;;;13.72;60.01
5484;BME280;2764;48.794;8.326;2022-12-29T02:12:40;99377.75;;;13.66;60.14
5484;BME280;2764;48.794;8.326;2022-12-29T02:13:41;99369.53;;;13.58;60.26
5484;BME280;2764;48.794;8.326;2022-12-29T02:14:44;99364.06;;;13.47;60.49
5484;BME280;2764;48.794;8.326;2022-12-29T02:19:27;99359.66;;;13.76;59.27
5484;BME280;2764;48.794;8.326;2022-12-29T02:24:37;99362.53;;;13.99;58.41
5484;BME280;2764;48.794;8.326;2022-12-29T02:26:08;99377.53;;;13.97;58.75
5484;BME280;2764;48.794;8.326;2022-12-29T02:33:33;99376.31;;;13.89;59.35
5484;BME280;2764;48.794;8.326;2022-12-29T02:44:45;99355.59;;;13.84;60.41
5484;BME280;2764;48.794;8.326;2022-12-29T02:45:54;99366.88;;;13.72;60.87
5484;BME280;2764;48.794;8.326;2022-12-29T02:47:14;99343.41;;;13.69;60.76
5484;BME280;2764;48.794;8.326;2022-12-29T02:50:20;99383.19;;;13.77;60.41
5484;BME280;2764;48.794;8.326;2022-12-29T02:51:35;99349.00;;;13.91;59.94
5484;BME280;2764;48.794;8.326;2022-12-29T02:52:44;99380.53;;;14.05;59.48
5484;BME280;2764;48.794;8.326;2022-12-29T02:53:48;99353.38;;;14.05;59.50
5484;BME280;2764;48.794;8.326;2022-12-29T02:55:11;99349.91;;;14.04;59.42
5484;BME280;2764;48.794;8.326;2022-12-29T02:56:13;99346.63;;;14.01;59.52
5484;BME280;2764;48.794;8.326;2022-12-29T02:57:29;99336.75;;;14.04;59.27
5484;BME280;2764;48.794;8.326;2022-12-29T02:58:31;99338.47;;;14.05;59.34
5484;BME280;2764;48.794;8.326;2022-12-29T02:59:33;99328.97;;;14.03;60.02
5484;BME280;2764;48.794;8.326;2022-12-29T03:00:41;99330.41;;;13.94;59.68
5484;BME280;2764;48.794;8.326;2022-12-29T03:05:05;99348.25;;;13.89;60.21
5484;BME280;2764;48.794;8.326;2022-12-29T03:06:52;99341.50;;;13.99;59.87
5484;BME280;2764;48.794;8.326;2022-12-29T03:09:50;99346.28;;;13.93;60.29
5484;BME280;2764;48.794;8.326;2022-12-29T03:11:03;99323.47;;;13.93;60.12
5484;BME280;2764;48.794;8.326;2022-12-29T03:12:48;99348.72;;;13.96;60.01
5484;BME280;2764;48.794;8.326;2022-12-29T03:14:22;99332.19;;;13.94;59.95
5484;BME280;2764;48.794;8.326;2022-12-29T03:15:51;99334.19;;;13.90;60.15
5484;BME280;2764;48.794;8.326;2022-12-29T03:17:09;99324.94;;;13.97;59.97
5484;BME280;2764;48.794;8.326;2022-12-29T03:19:36;99334.53;;;13.98;59.53
5484;BME280;2764;48.794;8.326;2022-12-29T03:20:47;99320.84;;;13.93;60.08
5484;BME280;2764;48.794;8.326;2022-12-29T03:21:55;99319.91;;;13.94;60.02
5484;BME280;2764;48.794;8.326;2022-12-29T03:23:18;99336.59;;;13.93;60.24
5484;BME280;2764;48.794;8.326;2022-12-29T03:24:25;99322.41;;;13.96;59.54
5484;BME280;2764;48.794;8.326;2022-12-29T03:25:30;99322.31;;;13.97;60.17
5484;BME280;2764;48.794;8.326;2022-12-29T03:26:35;99333.13;;;13.93;59.91
5484;BME280;2764;48.794;8.326;2022-12-29T03:27:43;99364.97;;;13.88;60.30
5484;BME280;2764;48.794;8.326;2022-12-29T03:28:50;99345.53;;;13.91;60.10
5484;BME280;2764;48.794;8.326;2022-12-29T03:29:58;99324.72;;;13.88;60.17
5484;BME280;2764;48.794;8.326;2022-12-29T03:31:03;99327.88;;;13.93;60.12
5484;BME280;2764;48.794;8.326;2022-12-29T03:32:07;99321.22;;;13.87;60.44
5484;BME280;2764;48.794;8.326;2022-12-29T03:33:13;99328.75;;;13.79;60.31
5484;BME280;2764;48.794;8.326;2022-12-29T03:34:18;99340.50;;;13.74;60.56
5484;BME280;2764;48.794;8.326;2022-12-29T03:35:23;99329.72;;;13.64;61.29
5484;BME280;2764;48.794;8.326;2022-12-29T03:36:30;99317.06;;;13.57;61.15
5484;BME280;2764;48.794;8.326;2022-12-29T03:37:41;99321.47;;;13.56;61.15
5484;BME280;2764;48.794;8.326;2022-12-29T03:38:48;99322.97;;;13.60;61.32
5484;BME280;2764;48.794;8.326;2022-12-29T03:39:52;99339.28;;;13.65;61.20
5484;BME280;2764;48.794;8.326;2022-12-29T03:40:59;99333.75;;;13.70;61.05
5484;BME280;2764;48.794;8.326;2022-12-29T03:42:08;99344.28;;;13.70;61.23
5484;BME280;2764;48.794;8.326;2022-12-29T03:43:12;99337.66;;;13.77;60.71
5484;BME280;2764;48.794;8.326;2022-12-29T03:44:14;99340.09;;;13.80;60.79
5484;BME280;2764;48.794;8.326;2022-12-29T03:45:16;99334.97;;;13.78;61.00
5484;BME280;2764;48.794;8.326;2022-12-29T03:46:19;99288.81;;;13.60;60.44
5484;BME280;2764;48.794;8.326;2022-12-29T03:47:21;99334.56;;;13.84;60.96
5484;BME280;2764;48.794;8.326;2022-12-29T03:48:23;99352.97;;;13.84;60.51
5484;BME280;2764;48.794;8.326;2022-12-29T03:49:25;99335.97;;;13.90;60.22
5484;BME280;2764;48.794;8.326;2022-12-29T03:50:27;99323.88;;;13.87;60.46
5484;BME280;2764;48.794;8.326;2022-12-29T03:51:29;99340.81;;;13.96;59.95
5484;BME280;2764;48.794;8.326;2022-12-29T03:52:34;99335.09;;;14.03;59.96
5484;BME280;2764;48.794;8.326;2022-12-29T03:53:36;99338.66;;;14.02;59.96
5484;BME280;2764;48.794;8.326;2022-12-29T03:54:37;99335.81;;;14.05;59.69
5484;BME280;2764;48.794;8.326;2022-12-29T03:55:39;99342.50;;;14.11;59.19
5484;BME280;2764;48.794;8.326;2022-12-29T03:56:41;99329.41;;;14.09;59.61
5484;BME280;2764;48.794;8.326;2022-12-29T03:57:42;99320.91;;;14.06;59.90
5484;BME280;2764;48.794;8.326;2022-12-29T03:58:44;99337.06;;;14.00;60.33
5484;BME280;2764;48.794;8.326;2022-12-29T03:59:46;99314.44;;;13.97;59.54
5484;BME280;2764;48.794;8.326;2022-12-29T04:00:48;99326.81;;;13.95;59.74
5484;BME280;2764;48.794;8.326;2022-12-29T04:01:50;99325.91;;;13.96;60.09
5484;BME280;2764;48.794;8.326;2022-12-29T04:02:52;99310.53;;;13.90;60.15
5484;BME280;2764;48.794;8.326;2022-12-29T04:03:55;99313.34;;;13.87;59.83
5484;BME280;2764;48.794;8.326;2022-12-29T04:04:57;99315.00;;;13.88;59.91
5484;BME280;2764;48.794;8.326;2022-12-29T04:05:59;99331.84;;;13.86;60.26
5484;BME280;2764;48.794;8.326;2022-12-29T04:07:00;99312.38;;;13.88;59.86
5484;BME280;2764;48.794;8.326;2022-12-29T04:08:03;99296.72;;;13.87;59.95
5484;BME280;2764;48.794;8.326;2022-12-29T04:09:06;99302.28;;;13.82;60.25
5484;BME280;2764;48.794;8.326;2022-12-29T04:10:08;99305.09;;;13.79;60.26
5484;BME280;2764;48.794;8.326;2022-12-29T04:11:10;99299.31;;;13.74;60.60
5484;BME280;2764;48.794;8.326;2022-12-29T04:12:12;99301.38;;;13.69;60.68
5484;BME280;2764;48.794;8.326;2022-12-29T04:13:15;99315.63;;;13.65;61.12
5484;BME280;2764;48.794;8.326;2022-12-29T04:14:18;99296.31;;;13.52;61.55
5484;BME280;2764;48.794;8.326;2022-12-29T04:15:20;99297.53;;;13.61;61.18
5484;BME280;2764;48.794;8.326;2022-12-29T04:16:22;99279.19;;;13.32;61.33
5484;BME280;2764;48.794;8.326;2022-12-29T04:17:24;99300.72;;;13.52;61.77
5484;BME280;2764;48.794;8.326;2022-12-29T04:18:26;99296.50;;;13.49;61.52
5484;BME280;2764;48.794;8.326;2022-12-29T04:19:28;99308.25;;;13.44;61.82
5484;BME280;2764;48.794;8.326;2022-12-29T04:20:29;99308.81;;;13.49;61.72
5484;BME280;2764;48.794;8.326;2022-12-29T04:21:50;99298.03;;;13.53;62.27
5484;BME280;2764;48.794;8.326;2022-12-29T04:23:02;99299.69;;;13.54;61.91
5484;BME280;2764;48.794;8.326;2022-12-29T04:24:05;99295.56;;;13.64;61.64
5484;BME280;2764;48.794;8.326;2022-12-29T04:25:10;99308.88;;;13.61;61.92
5484;BME280;2764;48.794;8.326;2022-12-29T04:26:11;99295.84;;;13.60;62.07
5484;BME280;2764;48.794;8.326;2022-12-29T04:27:13;99298.94;;;13.66;61.88
5484;BME280;2764;48.794;8.326;2022-12-29T04:28:16;99266.66;;;13.64;61.99
5484;BME280;2764;48.794;8.326;2022-12-29T04:29:19;99287.84;;;13.61;62.17
5484;BME280;2764;48.794;8.326;2022-12-29T04:30:21;99293.69;;;13.52;62.69
5484;BME280;2764;48.794;8.326;2022-12-29T04:31:23;99291.06;;;13.52;62.40
5484;BME280;2764;48.794;8.326;2022-12-29T04:32:24;99237.53;;;13.26;62.71
5484;BME280;2764;48.794;8.326;2022-12-29T04:33:26;99307.88;;;13.50;62.64
5484;BME280;2764;48.794;8.326;2022-12-29T04:34:29;99293.63;;;13.54;62.64
5484;BME280;2764;48.794;8.326;2022-12-29T04:35:30;99299.13;;;13.49;63.33
5484;BME280;2764;48.794;8.326;2022-12-29T04:36:32;99288.63;;;13.49;63.29
5484;BME280;2764;48.794;8.326;2022-12-29T04:37:35;99302.63;;;13.50;63.17
5484;BME280;2764;48.794;8.326;2022-12-29T04:38:36;99291.75;;;13.56;62.70
5484;BME280;2764;48.794;8.326;2022-12-29T04:39:38;99305.69;;;13.56;62.88
5484;BME280;2764;48.794;8.326;2022-12-29T04:40:42;99297.16;;;13.53;63.01
5484;BME280;2764;48.794;8.326;2022-12-29T04:41:44;99299.91;;;13.51;62.95
5484;BME280;2764;48.794;8.326;2022-12-29T04:42:46;99289.97;;;13.42;63.36
5484;BME280;2764;48.794;8.326;2022-12-29T04:43:49;99284.22;;;13.35;64.29
5484;BME280;2764;48.794;8.326;2022-12-29T04:44:50;99320.38;;;13.46;63.48
5484;BME280;2764;48.794;8.326;2022-12-29T04:45:52;99309.09;;;13.44;63.55
5484;BME280;2764;48.794;8.326;2022-12-29T04:46:54;99292.22;;;13.48;63.33
5484;BME280;2764;48.794;8.326;2022-12-29T04:47:56;99297.56;;;13.47;63.73
5484;BME280;2764;48.794;8.326;2022-12-29T04:48:57;99323.06;;;13.45;63.34
5484;BME280;2764;48.794;8.326;2022-12-29T04:49:59;99308.25;;;13.44;63.69
5484;BME280;2764;48.794;8.326;2022-12-29T04:51:01;99315.47;;;13.54;63.65
5484;BME280;2764;48.794;8.326;2022-12-29T04:52:03;99303.91;;;13.57;63.54
5484;BME280;2764;48.794;8.326;2022-12-29T04:53:07;99319.38;;;13.61;63.55
5484;BME280;2764;48.794;8.326;2022-12-29T04:54:09;99296.69;;;13.60;63.57
5484;BME280;2764;48.794;8.326;2022-12-29T04:55:11;99313.56;;;13.56;63.52
5484;BME280;2764;48.794;8.326;2022-12-29T04:56:13;99319.03;;;13.53;63.60
5484;BME280;2764;48.794;8.326;2022-12-29T04:57:15;99286.72;;;13.65;63.25
5484;BME280;2764;48.794;8.326;2022-12-29T04:58:20;99309.03;;;13.72;63.04
5484;BME280;2764;48.794;8.326;2022-12-29T04:59:24;99303.91;;;13.71;63.17
5484;BME280;2764;48.794;8.326;2022-12-29T05:00:25;99296.31;;;13.66;63.47
5484;BME280;2764;48.794;8.326;2022-12-29T05:01:27;99267.81;;;13.60;63.81
5484;BME280;2764;48.794;8.326;2022-12-29T05:02:29;99288.06;;;13.58;63.92
5484;BME280;2764;48.794;8.326;2022-12-29T05:03:31;99297.44;;;13.62;63.43
5484;BME280;2764;48.794;8.326;2022-12-29T05:04:33;99285.97;;;13.63;63.37
5484;BME280;2764;48.794;8.326;2022-12-29T05:05:35;99283.28;;;13.65;63.48
5484;BME280;2764;48.794;8.326;2022-12-29T05:06:37;99275.97;;;13.56;63.86
5484;BME280;2764;48.794;8.326;2022-12-29T05:07:39;99291.75;;;13.56;64.94
5484;BME280;2764;48.794;8.326;2022-12-29T05:08:41;99295.00;;;13.59;63.78
5484;BME280;2764;48.794;8.326;2022-12-29T05:09:42;99296.78;;;13.59;63.75
5484;BME280;2764;48.794;8.326;2022-12-29T05:10:45;99312.25;;;13.63;63.95
5484;BME280;2764;48.794;8.326;2022-12-29T05:11:48;99279.97;;;13.61;63.69
5484;BME280;2764;48.794;8.326;2022-12-29T05:12:49;99280.94;;;13.60;63.85
5484;BME280;2764;48.794;8.326;2022-12-29T05:13:51;99281.47;;;13.65;63.56
5484;BME280;2764;48.794;8.326;2022-12-29T05:14:53;99297.34;;;13.64;63.60
5484;BME280;2764;48.794;8.326;2022-12-29T05:15:55;99274.53;;;13.64;64.07
5484;BME280;2764;48.794;8.326;2022-12-29T05:16:57;99279.69;;;13.66;63.58
5484;BME280;2764;48.794;8.326;2022-12-29T05:17:58;99280.25;;;13.71;63.35
5484;BME280;2764;48.794;8.326;2022-12-29T05:19:00;99292.06;;;13.78;62.89
5484;BME280;2764;48.794;8.326;2022-12-29T05:20:04;99265.13;;;13.74;63.21
5484;BME280;2764;48.794;8.326;2022-12-29T05:21:06;99271.50;;;13.70;63.56
5484;BME280;2764;48.794;8.326;2022-12-29T05:22:07;99278.75;;;13.67;63.28
5484;BME280;2764;48.794;8.326;2022-12-29T05:23:09;99260.41;;;13.79;62.53
5484;BME280;2764;48.794;8.326;2022-12-29T05:24:12;99263.88;;;13.80;63.05
5484;BME280;2764;48.794;8.326;2022-12-29T05:25:14;99269.34;;;13.77;62.90
5484;BME280;2764;48.794;8.326;2022-12-29T05:26:15;99246.44;;;13.79;62.76
5484;BME280;2764;48.794;8.326;2022-12-29T05:27:17;99258.94;;;13.75;63.11
5484;BME280;2764;48.794;8.326;2022-12-29T05:28:19;99252.75;;;13.76;62.73
5484;BME280;2764;48.794;8.326;2022-12-29T05:29:21;99276.09;;;13.81;62.72
5484;BME280;2764;48.794;8.326;2022-12-29T05:30:23;99240.03;;;13.83;62.53
5484;BME280;2764;48.794;8.326;2022-12-29T05:31:25;99259.06;;;13.86;62.16
5484;BME280;2764;48.794;8.326;2022-12-29T05:32:27;99252.34;;;13.82;62.73
5484;BME280;2764;48.794;8.326;2022-12-29T05:33:29;99246.53;;;13.77;62.58
5484;BME280;2764;48.794;8.326;2022-12-29T05:34:30;99247.25;;;13.79;62.55
5484;BME280;2764;48.794;8.326;2022-12-29T05:35:32;99245.59;;;13.78;62.65
5484;BME280;2764;48.794;8.326;2022-12-29T05:36:34;99242.41;;;13.73;62.65
5484;BME280;2764;48.794;8.326;2022-12-29T05:37:38;99237.47;;;13.69;63.03
5484;BME280;2764;48.794;8.326;2022-12-29T05:38:40;99235.88;;;13.66;63.22
5484;BME280;2764;48.794;8.326;2022-12-29T05:39:42;99234.94;;;13.67;62.98
5484;BME280;2764;48.794;8.326;2022-12-29T05:40:45;99242.81;;;13.67;62.98
5484;BME280;2764;48.794;8.326;2022-12-29T05:41:48;99228.91;;;13.65;62.98
5484;BME280;2764;48.794;8.326;2022-12-29T05:42:50;99234.72;;;13.70;62.86
5484;BME280;2764;48.794;8.326;2022-12-29T05:43:51;99237.47;;;13.69;62.63
5484;BME280;2764;48.794;8.326;2022-12-29T05:44:53;99232.19;;;13.69;63.06
5484;BME280;2764;48.794;8.326;2022-12-29T05:45:55;99223.13;;;13.60;63.11
5484;BME280;2764;48.794;8.326;2022-12-29T05:46:57;99237.94;;;13.61;63.11
5484;BME280;2764;48.794;8.326;2022-12-29T05:48:00;99247.31;;;13.65;62.93
5484;BME280;2764;48.794;8.326;2022-12-29T05:49:01;99248.41;;;13.75;62.13
5484;BME280;2764;48.794;8.326;2022-12-29T05:50:05;99228.88;;;13.79;62.17
5484;BME280;2764;48.794;8.326;2022-12-29T05:51:07;99254.53;;;13.76;62.45
5484;BME280;2764;48.794;8.326;2022-12-29T05:52:09;99246.81;;;13.73;62.39
5484;BME280;2764;48.794;8.326;2022-12-29T05:53:11;99249.56;;;13.71;62.38
5484;BME280;2764;48.794;8.326;2022-12-29T05:54:13;99241.97;;;13.67;62.50
5484;BME280;2764;48.794;8.326;2022-12-29T05:55:15;99245.75;;;13.63;62.65
5484;BME280;2764;48.794;8.326;2022-12-29T05:56:16;99251.94;;;13.62;62.65
5484;BME280;2764;48.794;8.326;2022-12-29T05:57:18;99249.94;;;13.65;62.61
5484;BME280;2764;48.794;8.326;2022-12-29T05:58:20;99255.41;;;13.62;62.60
5484;BME280;2764;48.794;8.326;2022-12-29T05:59:22;99254.56;;;13.62;62.76
5484;BME280;2764;48.794;8.326;2022-12-29T06:00:23;99258.78;;;13.64;62.53
5484;BME280;2764;48.794;8.326;2022-12-29T06:01:25;99233.53;;;13.62;63.18
5484;BME280;2764;48.794;8.326;2022-12-29T06:02:27;99264.13;;;13.63;62.70
5484;BME280;2764;48.794;8.326;2022-12-29T06:03:29;99251.81;;;13.63;62.57
5484;BME280;2764;48.794;8.326;2022-12-29T06:04:31;99253.97;;;13.71;62.10
5484;BME280;2764;48.794;8.326;2022-12-29T06:05:33;99256.88;;;13.66;62.59
5484;BME280;2764;48.794;8.326;2022-12-29T06:06:35;99232.78;;;13.60;62.69
5484;BME280;2764;48.794;8.326;2022-12-29T06:07:37;99250.81;;;13.52;63.03
5484;BME280;2764;48.794;8.326;2022-12-29T06:08:39;99253.06;;;13.58;62.65
5484;BME280;2764;48.794;8.326;2022-12-29T06:09:40;99260.66;;;13.62;62.30
5484;BME280;2764;48.794;8.326;2022-12-29T06:10:42;99263.88;;;13.80;61.51
5484;BME280;2764;48.794;8.326;2022-12-29T06:11:45;99236.25;;;13.87;61.30
5484;BME280;2764;48.794;8.326;2022-12-29T06:12:47;99237.13;;;13.87;61.57
5484;BME280;2764;48.794;8.326;2022-12-29T06:13:49;99232.22;;;13.81;61.60
5484;BME280;2764;48.794;8.326;2022-12-29T06:14:51;99253.56;;;13.77;61.62
5484;BME280;2764;48.794;8.326;2022-12-29T06:15:54;99246.63;;;13.76;61.54
5484;BME280;2764;48.794;8.326;2022-12-29T06:16:56;99247.25;;;13.79;61.50
5484;BME280;2764;48.794;8.326;2022-12-29T06:17:57;99268.47;;;13.90;60.69
5484;BME280;2764;48.794;8.326;2022-12-29T06:18:59;99266.19;;;13.98;60.31
5484;BME280;2764;48.794;8.326;2022-12-29T06:20:01;99229.19;;;14.01;60.37
5484;BME280;2764;48.794;8.326;2022-12-29T06:21:04;99248.69;;;13.97;60.30
5484;BME280;2764;48.794;8.326;2022-12-29T06:22:06;99261.75;;;13.99;60.97
5484;BME280;2764;48.794;8.326;2022-12-29T06:23:08;99252.59;;;13.92;60.90
5484;BME280;2764;48.794;8.326;2022-12-29T06:24:10;99248.38;;;13.89;61.44
5484;BME280;2764;48.794;8.326;2022-12-29T06:25:12;99273.47;;;13.81;61.84
5484;BME280;2764;48.794;8.326;2022-12-29T06:26:15;99263.88;;;13.80;61.45
5484;BME280;2764;48.794;8.326;2022-12-29T06:27:16;99248.13;;;13.80;61.37
5484;BME280;2764;48.794;8.326;2022-12-29T06:28:18;99259.88;;;13.74;61.49